GZA weather

CLOSED Yasser Arafat International Airport
Rafah, Rafah Governorate, Palestinian Territory

Public forecast

Using degrees Celsius for public forecast. Weather courtesy of forecast.io.

Closest aviation weather report (METAR) to Yasser Arafat International Airport

Report is more than 6 hours old.

Closest report is El Arish International Airport, 24.9 nm (46.1 km) WSW. Retrieved 2019/09/02 14:00 UTC (2 months ago):

HEAR 021400Z NI

Closest aviation forecast (TAF) to Yasser Arafat International Airport

Forecast is more than 12 hours old.

Closest forecast is El Gora Airport, 13.1 nm (24.2 km) SW. Retrieved 2019/10/13 18:00 UTC (7 days ago):

TAF HEGR 131700Z 1318/1424 25008KT 9999 SCT025 TEMPO 1400/1406 6000 -RA BKN020